TNCMTNCC

Guest
Details From TNCM - St Maarten - Princess Juliana Intl
To TNCC - Curacao Hato
Flight Number -
Tags Generated
Created
Modified
Stats Distance 488 nm / 904 km
Max Altitude 0 ft / 0 m
Waypoints 4
Social Downloads 26
Likes 0
Share VATSIM

Download

Looking for another format? Having issues loading an existing format? Contact us
Advertisement - Login to hide

Notes

Generated

Route

TNCM MILOK HTO12 TNCC

ID Type Via Altitude Latitude Longitude Leg Dist Tot Dist Heading (true) Name
O TNCM APT - 0 ft / 0 m 18.03937˚ -63.11961˚ - 0 nm - -
MILOK FIX - 0 ft / 0 m 15.29333˚ -65.88000˚ 228 nm 228 nm 224° / 224° -
HTO12 FIX - 0 ft / 0 m 12.19383˚ -68.97506˚ 259 nm 488 nm 225° / 224° -
O TNCC APT - 0 ft / 0 m 12.19211˚ -68.97514˚ 0 nm 488 nm 183° / 183° -

Altitude Profile

Advertisement - Login to hide

Weather


0- 5 10 15 20 25 30 35+ Temperature / ° C

Clouds and Precipitation
Forecast for 2018-05-21 18:00 UTC. Updated 12 minutes ago

Ground ~20,000 ft ~40,000 ft Winds

TNCM

Details ICAO TNCM (SXM)
Name St Maarten - Princess Juliana Intl
Region Caribbean Netherlands, Aruba, Curaçao, Sint Maarten
Timezone Unknown (UTC+0.0)
Stats Elevation 12 ft / 4 m (AMSL)
Location 18.040889° -63.108974°
Runways 1
Magnetic Variation 14.337° W

METAR

TNCM 211700Z 09012KT 060V140 9999 SCT018 29/21 Q1016 A3001 NOSIG

Decode

TAF

TAF TNCM 211131Z 2112/2212 08010KT P6SM VCSH FEW018 FM211600 10015KT P6SM VCSH SCT020 FM212300 09010KT P6SM VCSH SCT018 SCT040

Decode

Departure Runways

ID Width Length Bearing (true) Bearing (mag) Surface Threshold Offset Overrun Length
10 148 ft / 45 m 7,464 ft / 2,275 m 81.43° 95.77° Asphalt 0 ft / 0 m 151 ft / 46 m
28 148 ft / 45 m 7,464 ft / 2,275 m 261.44° 275.78° Asphalt 397 ft / 121 m 0 ft / 0 m

TNCC

Details ICAO TNCC (CUR)
Name Curacao Hato
Region Caribbean Netherlands, Aruba, Curaçao, Sint Maarten
Timezone Unknown (UTC+0.0)
Stats Elevation 29 ft / 9 m (AMSL)
Location 12.188853° -68.959803°
Runways 1
Magnetic Variation 11.372° W

METAR

TNCC 211700Z AUTO 10015KT 9999 SCT024 31/23 Q1013 NOSIG

Decode

TAF

Not found

Destination Runways

ID Width Length Bearing (true) Bearing (mag) Surface Threshold Offset Overrun Length
11 197 ft / 60 m 11,197 ft / 3,413 m 102.24° 113.61° Asphalt 300 ft / 91 m 0 ft / 0 m
29 197 ft / 60 m 11,197 ft / 3,413 m 282.24° 293.61° Asphalt 300 ft / 91 m 200 ft / 61 m

Approach Navaids

Runway Type Ident Frequency Range Bearing (true) Bearing (mag) Slope Elevation
11 Localiser IATO 111.90 MHz 18 nm / 33 km 102.23° 113.60° - 29 ft / 9 m (AMSL)
11 Glidescope IATO 111.90 MHz 10 nm / 19 km 102.24° 113.61° 3.00° 29 ft / 9 m (AMSL)
11 DME IATO 111.90 MHz 18 nm / 33 km - - - 29 ft / 9 m (AMSL)

Popular Alternatives